createdAt,value
2018-05-03T00:01:05.276Z,15.80
2018-05-03T00:03:31.455Z,15.80
2018-05-03T00:05:57.655Z,15.80
2018-05-03T00:08:23.898Z,15.80
2018-05-03T00:10:50.089Z,15.80
2018-05-03T00:13:16.288Z,15.80
2018-05-03T00:15:42.483Z,15.80
2018-05-03T00:18:08.687Z,15.80
2018-05-03T00:20:34.888Z,15.70
2018-05-03T00:23:01.865Z,15.70
2018-05-03T00:25:28.779Z,15.70
2018-05-03T00:27:54.987Z,15.70
2018-05-03T00:30:21.275Z,15.70
2018-05-03T00:32:47.458Z,15.60
2018-05-03T00:35:15.156Z,15.60
2018-05-03T00:37:42.100Z,15.50
2018-05-03T00:40:09.019Z,15.50
2018-05-03T00:42:35.207Z,15.40
2018-05-03T00:45:01.381Z,15.40
2018-05-03T00:47:27.548Z,15.30
2018-05-03T00:49:53.726Z,15.30
2018-05-03T00:52:19.891Z,15.10
2018-05-03T00:54:46.820Z,15.00
2018-05-03T00:57:13.031Z,14.90
2018-05-03T00:59:39.226Z,14.90
2018-05-03T01:02:05.416Z,14.80
2018-05-03T01:04:32.374Z,14.60
2018-05-03T01:06:58.576Z,14.60
2018-05-03T01:09:24.814Z,14.50
2018-05-03T01:11:51.783Z,14.30
2018-05-03T01:14:17.979Z,14.30
2018-05-03T01:16:44.936Z,14.10
2018-05-03T01:19:11.860Z,14.10
2018-05-03T01:21:38.805Z,14.00
2018-05-03T01:24:05.793Z,13.90
2018-05-03T01:26:32.016Z,13.90
2018-05-03T01:28:58.228Z,13.80
2018-05-03T01:31:24.404Z,13.70
2018-05-03T01:33:50.604Z,13.70
2018-05-03T01:36:24.792Z,13.60
2018-05-03T01:38:50.998Z,13.50
2018-05-03T01:41:17.245Z,13.50
2018-05-03T01:43:43.408Z,13.40
2018-05-03T01:46:09.696Z,13.30
2018-05-03T01:48:35.887Z,13.30
2018-05-03T01:51:02.072Z,13.20
2018-05-03T01:53:28.262Z,13.10
2018-05-03T01:55:54.456Z,13.10
2018-05-03T01:58:20.636Z,13.00
2018-05-03T02:00:46.855Z,13.00
2018-05-03T02:03:13.803Z,12.90
2018-05-03T02:05:40.755Z,12.80
2018-05-03T02:08:06.988Z,12.80
2018-05-03T02:10:33.204Z,12.70
2018-05-03T02:12:59.396Z,12.70
2018-05-03T02:15:26.375Z,12.60
2018-05-03T02:17:53.307Z,12.50
2018-05-03T02:20:19.512Z,12.50
2018-05-03T02:22:46.510Z,12.40
2018-05-03T02:25:12.693Z,12.40
2018-05-03T02:27:38.915Z,12.40
2018-05-03T02:30:05.139Z,12.40
2018-05-03T02:32:31.356Z,12.30
2018-05-03T02:34:57.583Z,12.30
2018-05-03T02:37:23.777Z,12.20
2018-05-03T02:39:49.953Z,12.30
2018-05-03T02:42:16.175Z,12.10
2018-05-03T02:44:42.594Z,12.10
2018-05-03T02:47:08.781Z,12.00
2018-05-03T02:49:35.010Z,12.00
2018-05-03T02:52:01.197Z,11.90
2018-05-03T02:54:28.140Z,11.80
2018-05-03T02:57:06.660Z,11.80
2018-05-03T02:59:45.317Z,11.80
2018-05-03T03:02:25.125Z,11.80
2018-05-03T03:08:45.092Z,11.60
2018-05-03T03:11:29.942Z,11.60
2018-05-03T03:14:14.771Z,11.50
2018-05-03T03:17:00.385Z,11.40
2018-05-03T03:19:38.933Z,11.40
2018-05-03T03:22:23.901Z,11.40
2018-05-03T03:25:02.643Z,11.30
2018-05-03T03:27:48.159Z,11.30
2018-05-03T03:30:32.931Z,11.20
2018-05-03T03:33:11.676Z,11.20
2018-05-03T03:41:33.521Z,11.10
2018-05-03T03:44:12.089Z,11.00
2018-05-03T03:46:38.315Z,11.00
2018-05-03T03:49:04.502Z,11.00
2018-05-03T03:51:37.695Z,11.00
2018-05-03T03:54:03.907Z,10.90
2018-05-03T03:56:30.108Z,10.90
2018-05-03T03:58:57.117Z,10.90
2018-05-03T04:01:23.990Z,10.80
2018-05-03T04:03:50.233Z,10.80
2018-05-03T04:06:17.177Z,10.80
2018-05-03T04:08:44.104Z,10.80
2018-05-03T04:11:10.276Z,10.80
2018-05-03T04:13:43.363Z,10.80
2018-05-03T04:16:09.536Z,10.80
2018-05-03T04:18:48.133Z,10.70
2018-05-03T04:21:26.686Z,10.70
2018-05-03T04:24:14.008Z,10.70
2018-05-03T04:26:40.939Z,10.60
2018-05-03T04:29:07.147Z,10.60
2018-05-03T04:31:33.337Z,10.60
2018-05-03T04:33:59.532Z,10.60
2018-05-03T04:36:26.458Z,10.50
2018-05-03T04:38:52.676Z,10.50
2018-05-03T04:41:18.860Z,10.60
2018-05-03T04:43:45.044Z,10.60
2018-05-03T04:46:11.243Z,10.60
2018-05-03T04:48:37.424Z,10.60
2018-05-03T04:51:04.349Z,10.50
2018-05-03T04:53:31.288Z,10.60
2018-05-03T04:55:57.475Z,10.60
2018-05-03T04:58:23.643Z,10.60
2018-05-03T05:00:49.844Z,10.60
2018-05-03T05:03:16.011Z,10.60
2018-05-03T05:05:42.276Z,10.60
2018-05-03T05:08:08.415Z,10.60
2018-05-03T05:10:34.696Z,10.60
2018-05-03T05:13:00.815Z,10.70
2018-05-03T05:15:27.003Z,10.70
2018-05-03T05:17:53.253Z,10.80
2018-05-03T05:20:19.409Z,10.80
2018-05-03T05:22:46.337Z,10.80
2018-05-03T05:25:12.551Z,10.80
2018-05-03T05:27:38.727Z,10.80
2018-05-03T05:30:05.672Z,10.90
2018-05-03T05:32:31.850Z,10.80
2018-05-03T05:34:58.091Z,10.90
2018-05-03T05:37:24.283Z,10.90
2018-05-03T05:39:50.497Z,10.90
2018-05-03T05:42:16.686Z,10.90
2018-05-03T05:44:42.876Z,11.00
2018-05-03T05:47:09.078Z,11.00
2018-05-03T05:49:35.256Z,11.10
2018-05-03T05:52:02.230Z,11.20
2018-05-03T05:54:29.145Z,11.20
2018-05-03T05:56:56.084Z,11.30
2018-05-03T05:59:22.287Z,11.40
2018-05-03T06:01:48.449Z,11.40
2018-05-03T06:04:15.409Z,11.60
2018-05-03T06:06:41.578Z,11.60
2018-05-03T06:09:07.751Z,11.70
2018-05-03T06:11:34.681Z,12.10
2018-05-03T06:14:00.883Z,12.00
2018-05-03T06:16:27.044Z,12.30
2018-05-03T06:18:53.208Z,12.50
2018-05-03T06:21:19.387Z,12.70
2018-05-03T06:23:45.547Z,13.00
2018-05-03T06:26:15.403Z,13.60
2018-05-03T06:28:41.601Z,13.60
2018-05-03T06:31:07.779Z,13.90
2018-05-03T06:33:33.953Z,14.20
2018-05-03T06:36:00.166Z,14.50
2018-05-03T06:38:27.468Z,15.00
2018-05-03T06:40:53.639Z,14.90
2018-05-03T06:43:20.580Z,15.40
2018-05-03T06:45:47.508Z,15.70
2018-05-03T06:48:15.144Z,16.00
2018-05-03T06:50:41.339Z,16.00
2018-05-03T06:53:07.512Z,16.20
2018-05-03T06:55:33.675Z,16.40
2018-05-03T06:58:00.624Z,16.50
2018-05-03T07:00:27.543Z,16.50
2018-05-03T07:02:53.716Z,16.50
2018-05-03T07:05:19.916Z,16.50
2018-05-03T07:07:46.857Z,16.60
2018-05-03T07:10:13.776Z,16.60
2018-05-03T07:12:39.968Z,16.60
2018-05-03T07:15:06.147Z,16.60
2018-05-03T07:17:32.324Z,16.60
2018-05-03T07:20:05.309Z,16.60
2018-05-03T07:22:31.516Z,16.50
2018-05-03T07:24:58.432Z,16.30
2018-05-03T07:27:24.621Z,16.30
2018-05-03T07:29:50.779Z,16.20
2018-05-03T07:32:16.957Z,16.10
2018-05-03T07:34:43.224Z,16.00
2018-05-03T07:37:09.319Z,16.00
2018-05-03T07:39:35.527Z,16.00
2018-05-03T07:42:01.724Z,16.00
2018-05-03T07:44:27.903Z,16.00
2018-05-03T07:46:54.079Z,16.10
2018-05-03T07:49:21.006Z,16.20
2018-05-03T07:51:47.210Z,16.20
2018-05-03T07:54:13.380Z,16.30
2018-05-03T07:56:39.657Z,16.30
2018-05-03T07:59:07.263Z,16.40
2018-05-03T08:01:33.455Z,16.40
2018-05-03T08:03:59.667Z,16.50
2018-05-03T08:06:25.863Z,16.60
2018-05-03T08:08:52.803Z,16.70
2018-05-03T08:11:19.716Z,16.80
2018-05-03T08:13:45.928Z,16.70
2018-05-03T08:16:12.126Z,16.80
2018-05-03T08:18:39.083Z,16.80
2018-05-03T08:21:06.088Z,16.80
2018-05-03T08:23:33.004Z,16.80
2018-05-03T08:25:59.200Z,16.70
2018-05-03T08:28:25.387Z,16.70
2018-05-03T08:30:52.315Z,16.80
2018-05-03T08:33:18.662Z,16.80
2018-05-03T08:35:45.103Z,16.80
2018-05-03T08:38:12.015Z,17.00
2018-05-03T08:40:38.219Z,17.00
2018-05-03T08:43:04.404Z,17.00
2018-05-03T08:45:31.330Z,17.10
2018-05-03T08:47:58.263Z,17.10
2018-05-03T08:50:24.459Z,17.10
2018-05-03T08:52:50.694Z,17.10
2018-05-03T08:55:16.955Z,17.20
2018-05-03T08:57:43.891Z,17.20
2018-05-03T09:00:10.063Z,17.20
2018-05-03T09:02:36.248Z,17.30
2018-05-03T09:05:03.983Z,17.30
2018-05-03T09:07:30.191Z,17.30
2018-05-03T09:09:57.818Z,17.40
2018-05-03T09:12:24.051Z,17.40
2018-05-03T09:14:51.030Z,17.50
2018-05-03T09:17:17.238Z,17.40
2018-05-03T09:19:43.415Z,17.70
2018-05-03T09:22:09.609Z,17.80
2018-05-03T09:24:35.796Z,17.80
2018-05-03T09:27:01.979Z,17.80
2018-05-03T09:29:28.155Z,17.80
2018-05-03T09:31:54.383Z,17.80
2018-05-03T09:34:20.585Z,17.80
2018-05-03T09:36:46.804Z,17.90
2018-05-03T09:39:13.047Z,18.00
2018-05-03T09:41:39.233Z,18.10
2018-05-03T09:44:05.415Z,18.20
2018-05-03T09:46:31.625Z,18.30
2018-05-03T09:48:57.816Z,18.40
2018-05-03T09:51:23.988Z,18.40
2018-05-03T09:53:50.177Z,18.50
2018-05-03T09:56:16.347Z,18.60
2018-05-03T09:58:43.278Z,18.90
2018-05-03T10:01:09.490Z,18.80
2018-05-03T10:03:35.691Z,18.90
2018-05-03T10:06:01.867Z,18.90
2018-05-03T10:08:28.067Z,18.90
2018-05-03T10:10:54.300Z,18.80
2018-05-03T10:13:20.542Z,18.80
2018-05-03T10:15:46.776Z,18.70
2018-05-03T10:18:13.771Z,18.80
2018-05-03T10:20:40.748Z,18.90
2018-05-03T10:23:07.032Z,18.80
2018-05-03T10:25:33.242Z,18.90
2018-05-03T10:28:00.203Z,19.10
2018-05-03T10:30:27.131Z,19.20
2018-05-03T10:32:53.297Z,19.20
2018-05-03T10:35:19.479Z,19.30
2018-05-03T10:37:46.431Z,19.50
2018-05-03T10:40:13.347Z,19.60
2018-05-03T10:42:39.523Z,19.60
2018-05-03T10:45:05.742Z,19.70
2018-05-03T10:47:32.684Z,19.60
2018-05-03T10:49:59.628Z,19.60
2018-05-03T10:52:26.571Z,19.50
2018-05-03T10:54:53.507Z,19.60
2018-05-03T10:57:20.440Z,19.70
2018-05-03T10:59:46.629Z,19.60
2018-05-03T11:02:12.809Z,19.70
2018-05-03T11:04:38.975Z,19.80
2018-05-03T11:07:05.169Z,19.80
2018-05-03T11:09:32.121Z,19.80
2018-05-03T11:14:31.945Z,19.80
2018-05-03T11:16:58.131Z,19.80
2018-05-03T11:19:24.313Z,19.90
2018-05-03T11:21:50.563Z,20.00
2018-05-03T11:24:16.728Z,20.00
2018-05-03T11:26:42.928Z,20.10
2018-05-03T11:29:09.114Z,20.10
2018-05-03T11:31:36.076Z,20.10
2018-05-03T11:34:02.320Z,20.10
2018-05-03T11:36:28.519Z,20.10
2018-05-03T11:38:54.719Z,20.20
2018-05-03T11:41:20.911Z,20.20
2018-05-03T11:43:54.243Z,20.20
2018-05-03T11:46:20.409Z,20.20
2018-05-03T11:48:47.411Z,20.30
2018-05-03T11:51:13.534Z,20.30
2018-05-03T11:53:39.712Z,20.30
2018-05-03T11:56:05.896Z,20.30
2018-05-03T11:58:32.100Z,20.40
2018-05-03T12:00:58.279Z,20.30
2018-05-03T12:03:25.220Z,20.30
2018-05-03T12:05:51.430Z,20.30
2018-05-03T12:08:17.629Z,20.30
2018-05-03T12:10:43.832Z,20.40
2018-05-03T12:13:10.033Z,20.50
2018-05-03T12:15:36.959Z,20.60
2018-05-03T12:18:03.180Z,20.60
2018-05-03T12:20:29.355Z,20.60
2018-05-03T12:22:55.697Z,20.70
2018-05-03T12:25:21.907Z,20.80
2018-05-03T12:27:48.082Z,20.90
2018-05-03T12:30:14.265Z,21.00
2018-05-03T12:32:40.448Z,21.10
2018-05-03T12:35:06.632Z,21.10
2018-05-03T12:37:32.820Z,21.20
2018-05-03T12:39:59.764Z,21.40
2018-05-03T12:42:26.687Z,21.50
2018-05-03T12:44:52.867Z,21.50
2018-05-03T12:47:19.059Z,21.60
2018-05-03T12:49:45.973Z,21.80
2018-05-03T12:52:12.164Z,21.80
2018-05-03T12:54:38.357Z,21.90
2018-05-03T12:57:04.574Z,21.90
2018-05-03T12:59:30.778Z,22.00
2018-05-03T13:01:57.025Z,22.00
2018-05-03T13:04:23.216Z,22.00
2018-05-03T13:06:49.412Z,22.00
2018-05-03T13:09:15.624Z,22.10
2018-05-03T13:11:42.560Z,22.20
2018-05-03T13:14:09.516Z,22.10
2018-05-03T13:16:36.436Z,21.90
2018-05-03T13:19:02.672Z,21.90
2018-05-03T13:21:28.876Z,21.80
2018-05-03T13:23:55.099Z,21.60
2018-05-03T13:26:21.323Z,21.40
2018-05-03T13:28:47.532Z,21.20
2018-05-03T13:31:13.717Z,21.10
2018-05-03T13:33:39.890Z,20.90
2018-05-03T13:36:06.074Z,20.80
2018-05-03T13:38:39.109Z,20.60
2018-05-03T13:41:05.321Z,20.60
2018-05-03T13:43:31.519Z,20.40
2018-05-03T13:45:58.467Z,20.20
2018-05-03T13:48:25.408Z,20.20
2018-05-03T13:50:51.610Z,20.20
2018-05-03T13:53:17.873Z,20.20
2018-05-03T13:55:44.013Z,20.30
2018-05-03T13:58:10.950Z,20.60
2018-05-03T14:00:37.893Z,20.70
2018-05-03T14:03:04.831Z,20.80
2018-05-03T14:05:31.805Z,20.90
2018-05-03T14:07:58.001Z,20.90
2018-05-03T14:10:24.184Z,21.00
2018-05-03T14:12:50.367Z,21.00
2018-05-03T14:15:17.282Z,21.00
2018-05-03T14:17:43.468Z,20.90
2018-05-03T14:20:09.678Z,21.00
2018-05-03T14:22:36.613Z,21.00
2018-05-03T14:25:03.544Z,20.90
2018-05-03T14:27:29.755Z,20.90
2018-05-03T14:29:55.923Z,20.90
2018-05-03T14:32:22.858Z,20.70
2018-05-03T14:34:49.040Z,20.70
2018-05-03T14:37:15.236Z,20.60
2018-05-03T14:39:41.420Z,20.50
2018-05-03T14:42:07.623Z,20.40
2018-05-03T14:44:33.801Z,20.30
2018-05-03T14:47:00.022Z,20.30
2018-05-03T14:49:26.304Z,20.20
2018-05-03T14:51:52.494Z,20.10
2018-05-03T14:54:18.672Z,20.00
2018-05-03T14:56:44.855Z,19.90
2018-05-03T14:59:11.048Z,19.80
2018-05-03T15:01:37.235Z,19.80
2018-05-03T15:04:03.426Z,19.70
2018-05-03T15:06:30.411Z,19.50
2018-05-03T15:08:57.292Z,19.40
2018-05-03T15:11:23.516Z,19.40
2018-05-03T15:13:49.756Z,19.30
2018-05-03T15:16:16.777Z,19.10
2018-05-03T15:18:42.872Z,19.10
2018-05-03T15:21:09.276Z,19.10
2018-05-03T15:23:35.451Z,19.10
2018-05-03T15:26:01.648Z,19.20
2018-05-03T15:28:27.839Z,19.30
2018-05-03T15:30:54.779Z,19.60
2018-05-03T15:33:20.995Z,19.50
2018-05-03T15:35:47.179Z,19.70
2018-05-03T15:38:13.358Z,19.80
2018-05-03T15:40:40.316Z,19.90
2018-05-03T15:43:06.523Z,19.90
2018-05-03T15:45:32.713Z,19.90
2018-05-03T15:47:58.920Z,19.90
2018-05-03T15:50:25.112Z,19.90
2018-05-03T15:52:52.061Z,20.10
2018-05-03T15:55:18.999Z,20.20
2018-05-03T15:57:45.955Z,20.30
2018-05-03T16:00:12.914Z,20.40
2018-05-03T16:02:39.123Z,20.40
2018-05-03T16:05:06.089Z,20.40
2018-05-03T16:07:40.065Z,20.50
2018-05-03T16:10:06.260Z,20.50
2018-05-03T16:12:32.447Z,20.50
2018-05-03T16:14:59.449Z,20.50
2018-05-03T16:17:25.676Z,20.50
2018-05-03T16:19:51.880Z,20.50
2018-05-03T16:22:18.060Z,20.50
2018-05-03T16:24:45.003Z,20.50
2018-05-03T16:27:11.239Z,20.50
2018-05-03T16:29:38.154Z,20.40
2018-05-03T16:32:04.379Z,20.30
2018-05-03T16:34:30.601Z,20.30
2018-05-03T16:36:56.800Z,20.30
2018-05-03T16:39:22.975Z,20.20
2018-05-03T16:41:49.188Z,20.10
2018-05-03T16:44:15.437Z,20.10
2018-05-03T16:46:42.411Z,20.00
2018-05-03T16:49:09.336Z,20.00
2018-05-03T16:51:36.277Z,20.00
2018-05-03T16:54:03.269Z,19.90
2018-05-03T16:56:29.490Z,19.90
2018-05-03T16:58:55.737Z,19.90
2018-05-03T17:01:21.944Z,19.80
2018-05-03T17:03:48.178Z,19.70
2018-05-03T17:06:14.364Z,19.60
2018-05-03T17:08:40.549Z,19.50
2018-05-03T17:11:06.773Z,19.40
2018-05-03T17:13:32.954Z,19.30
2018-05-03T17:15:59.904Z,19.10
2018-05-03T17:18:26.825Z,19.00
2018-05-03T17:20:53.004Z,19.00
2018-05-03T17:23:19.175Z,19.00
2018-05-03T17:25:45.378Z,18.90
2018-05-03T17:28:11.558Z,18.80
2018-05-03T17:30:37.759Z,18.80
2018-05-03T17:33:03.960Z,18.70
2018-05-03T17:35:30.139Z,18.70
2018-05-03T17:37:57.101Z,18.60
2018-05-03T17:40:23.299Z,18.60
2018-05-03T17:42:49.475Z,18.60
2018-05-03T17:45:15.653Z,18.50
2018-05-03T17:47:42.633Z,18.40
2018-05-03T17:50:08.819Z,18.40
2018-05-03T17:52:35.000Z,18.40
2018-05-03T17:55:01.209Z,18.30
2018-05-03T17:57:27.392Z,18.30
2018-05-03T17:59:53.570Z,18.20
2018-05-03T18:02:19.778Z,18.20
2018-05-03T18:04:46.150Z,18.10
2018-05-03T18:07:12.915Z,18.10
2018-05-03T18:09:39.111Z,18.20
2018-05-03T18:12:05.288Z,18.20
2018-05-03T18:14:32.212Z,18.30
2018-05-03T18:16:58.499Z,18.30
2018-05-03T18:19:24.711Z,18.40
2018-05-03T18:21:50.887Z,18.40
2018-05-03T18:24:17.132Z,18.40
2018-05-03T18:26:43.307Z,18.50
2018-05-03T18:29:09.504Z,18.50
2018-05-03T18:31:36.423Z,18.40
2018-05-03T18:34:04.092Z,18.20
2018-05-03T18:36:30.437Z,18.30
2018-05-03T18:38:56.648Z,18.10
2018-05-03T18:41:22.827Z,18.00
2018-05-03T18:43:49.185Z,17.90
2018-05-03T18:46:15.323Z,17.70
2018-05-03T18:48:41.488Z,17.60
2018-05-03T18:51:08.419Z,17.40
2018-05-03T18:53:34.611Z,17.30
2018-05-03T18:56:00.795Z,17.30
2018-05-03T18:58:26.994Z,17.10
2018-05-03T19:00:53.212Z,17.00
2018-05-03T19:03:19.400Z,16.90
2018-05-03T19:05:45.600Z,16.80
2018-05-03T19:08:12.552Z,16.50
2018-05-03T19:10:39.489Z,16.40
2018-05-03T19:13:06.480Z,16.30
2018-05-03T19:15:33.383Z,16.20
2018-05-03T19:18:00.384Z,16.00
2018-05-03T19:20:27.287Z,15.90
2018-05-03T19:22:53.472Z,15.90
2018-05-03T19:25:19.660Z,15.80
2018-05-03T19:27:45.836Z,15.70
2018-05-03T19:30:12.800Z,15.50
2018-05-03T19:32:39.713Z,15.40
2018-05-03T19:35:06.019Z,15.40
2018-05-03T19:37:32.892Z,15.30
2018-05-03T19:39:59.081Z,15.20
2018-05-03T19:42:25.295Z,15.20
2018-05-03T19:44:51.469Z,15.10
2018-05-03T19:47:17.632Z,15.00
2018-05-03T19:49:43.846Z,14.90
2018-05-03T19:52:10.751Z,14.80
2018-05-03T19:54:36.928Z,14.80
2018-05-03T19:57:03.136Z,14.80
2018-05-03T19:59:30.066Z,14.60
2018-05-03T20:01:56.324Z,14.60
2018-05-03T20:04:23.247Z,14.50
2018-05-03T20:06:49.453Z,14.50
2018-05-03T20:09:15.623Z,14.40
2018-05-03T20:11:49.420Z,14.30
2018-05-03T20:14:16.347Z,14.30
2018-05-03T20:16:42.536Z,14.30
2018-05-03T20:19:08.735Z,14.20
2018-05-03T20:21:35.664Z,14.10
2018-05-03T20:24:02.623Z,14.10
2018-05-03T20:26:29.699Z,14.00
2018-05-03T20:28:56.619Z,13.90
2018-05-03T20:31:22.796Z,13.90
2018-05-03T20:33:48.977Z,13.90
2018-05-03T20:36:15.166Z,13.90
2018-05-03T20:38:41.332Z,13.80
2018-05-03T20:41:07.771Z,13.70
2018-05-03T20:43:33.959Z,13.70
2018-05-03T20:46:01.738Z,13.50
2018-05-03T20:48:27.903Z,13.50
2018-05-03T20:50:54.103Z,13.50
2018-05-03T20:53:21.040Z,13.40
2018-05-03T20:55:47.980Z,13.40
2018-05-03T20:58:14.895Z,13.30
2018-05-03T21:00:41.099Z,13.30
2018-05-03T21:03:07.319Z,13.30
2018-05-03T21:05:33.505Z,13.30
2018-05-03T21:08:00.454Z,13.10
2018-05-03T21:10:27.360Z,13.10
2018-05-03T21:12:53.839Z,13.10
2018-05-03T21:15:20.858Z,13.00
2018-05-03T21:17:47.799Z,12.90
2018-05-03T21:20:13.969Z,12.90
2018-05-03T21:22:47.072Z,12.90
2018-05-03T21:25:13.240Z,12.80
2018-05-03T21:27:39.414Z,12.80
2018-05-03T21:30:05.611Z,12.70
2018-05-03T21:32:32.555Z,12.60
2018-05-03T21:34:59.486Z,12.60
2018-05-03T21:37:25.669Z,12.50
2018-05-03T21:39:51.836Z,12.50
2018-05-03T21:42:18.010Z,12.50
2018-05-03T21:44:44.187Z,12.40
2018-05-03T21:47:10.375Z,12.40
2018-05-03T21:49:36.569Z,12.30
2018-05-03T21:52:02.740Z,12.30
2018-05-03T21:54:28.907Z,12.30
2018-05-03T21:56:55.087Z,12.20
2018-05-03T21:59:21.279Z,12.20
2018-05-03T22:01:48.214Z,12.10
2018-05-03T22:04:15.169Z,12.00
2018-05-03T22:06:42.140Z,12.00
2018-05-03T22:09:08.353Z,12.00
2018-05-03T22:11:34.539Z,12.00
2018-05-03T22:14:00.757Z,11.90
2018-05-03T22:16:26.935Z,11.90
2018-05-03T22:18:53.864Z,11.90
2018-05-03T22:21:20.832Z,11.80
2018-05-03T22:23:47.011Z,11.80
2018-05-03T22:26:13.180Z,11.80
2018-05-03T22:28:39.377Z,11.80
2018-05-03T22:31:05.557Z,11.70
2018-05-03T22:33:31.736Z,11.70
2018-05-03T22:35:57.987Z,11.70
2018-05-03T22:38:24.328Z,11.70
2018-05-03T22:40:50.457Z,11.70
2018-05-03T22:43:16.652Z,11.60
2018-05-03T22:45:43.576Z,11.60
2018-05-03T22:48:09.769Z,11.60
2018-05-03T22:50:36.035Z,11.50
2018-05-03T22:53:02.211Z,11.50
2018-05-03T22:55:28.380Z,11.50
2018-05-03T22:57:54.580Z,11.50
2018-05-03T23:00:20.748Z,11.40
2018-05-03T23:02:46.921Z,11.40
2018-05-03T23:05:13.124Z,11.40
2018-05-03T23:07:39.311Z,11.40
2018-05-03T23:10:05.543Z,11.40
2018-05-03T23:12:31.745Z,11.40
2018-05-03T23:14:57.971Z,11.40
2018-05-03T23:17:24.139Z,11.40
2018-05-03T23:19:51.791Z,11.30
2018-05-03T23:22:17.958Z,11.30
2018-05-03T23:24:44.191Z,11.30
2018-05-03T23:27:10.365Z,11.30
2018-05-03T23:29:36.531Z,11.30
2018-05-03T23:32:03.520Z,11.20
2018-05-03T23:34:29.744Z,11.20
2018-05-03T23:36:55.973Z,11.20
2018-05-03T23:39:22.159Z,11.20
2018-05-03T23:41:49.075Z,11.20
2018-05-03T23:44:15.248Z,11.10
2018-05-03T23:46:41.411Z,11.20
2018-05-03T23:49:07.588Z,11.10
2018-05-03T23:51:33.770Z,11.10
2018-05-03T23:53:59.953Z,11.10
2018-05-03T23:56:26.123Z,11.10
2018-05-03T23:58:52.282Z,11.00
